createdAt,value
2023-03-05T00:01:24.963Z,91.00
2023-03-05T00:03:53.620Z,91.00
2023-03-05T00:06:24.477Z,91.00
2023-03-05T00:08:53.410Z,91.00
2023-03-05T00:11:21.480Z,91.00
2023-03-05T00:13:51.355Z,91.10
2023-03-05T00:16:18.345Z,91.10
2023-03-05T00:18:47.581Z,91.10
2023-03-05T00:21:22.816Z,91.10
2023-03-05T00:23:50.747Z,91.40
2023-03-05T00:26:22.254Z,91.30
2023-03-05T00:28:50.348Z,91.50
2023-03-05T00:31:18.337Z,91.40
2023-03-05T00:33:45.669Z,91.50
2023-03-05T00:36:12.736Z,91.50
2023-03-05T00:38:39.544Z,91.50
2023-03-05T00:41:06.348Z,91.50
2023-03-05T00:43:33.118Z,91.50
2023-03-05T00:45:59.748Z,91.30
2023-03-05T00:48:26.749Z,91.30
2023-03-05T00:50:53.430Z,91.50
2023-03-05T00:53:20.599Z,91.50
2023-03-05T00:55:47.600Z,91.60
2023-03-05T00:58:14.694Z,91.50
2023-03-05T01:00:41.525Z,91.40
2023-03-05T01:03:09.540Z,91.40
2023-03-05T01:05:36.358Z,91.40
2023-03-05T01:08:03.276Z,91.30
2023-03-05T01:10:30.287Z,91.30
2023-03-05T01:12:58.015Z,91.30
2023-03-05T01:15:25.495Z,91.50
2023-03-05T01:17:52.357Z,91.50
2023-03-05T01:20:21.233Z,91.50
2023-03-05T01:22:48.462Z,91.80
2023-03-05T01:25:16.062Z,91.90
2023-03-05T01:27:42.808Z,92.00
2023-03-05T01:30:12.029Z,92.40
2023-03-05T01:32:38.833Z,92.40
2023-03-05T01:35:06.914Z,92.60
2023-03-05T01:37:33.682Z,92.60
2023-03-05T01:40:00.405Z,92.40
2023-03-05T01:42:27.140Z,92.20
2023-03-05T01:45:10.154Z,92.40
2023-03-05T01:47:37.469Z,92.40
2023-03-05T01:50:07.223Z,92.50
2023-03-05T01:52:36.595Z,92.40
2023-03-05T01:55:08.059Z,92.40
2023-03-05T01:57:39.926Z,92.60
2023-03-05T02:00:29.892Z,92.60
2023-03-05T02:03:01.514Z,92.70
2023-03-05T02:05:33.727Z,92.50
2023-03-05T02:08:03.164Z,92.60
2023-03-05T02:10:55.215Z,92.60
2023-03-05T02:13:24.865Z,92.50
2023-03-05T02:15:54.443Z,92.40
2023-03-05T02:18:21.723Z,92.30
2023-03-05T02:20:49.889Z,92.40
2023-03-05T02:23:18.858Z,92.20
2023-03-05T02:25:45.722Z,92.20
2023-03-05T02:28:18.449Z,92.50
2023-03-05T02:30:45.194Z,92.20
2023-03-05T02:33:14.487Z,92.20
2023-03-05T02:35:41.514Z,92.20
2023-03-05T02:38:08.173Z,92.20
2023-03-05T02:40:34.958Z,92.40
2023-03-05T02:43:01.618Z,92.20
2023-03-05T02:45:28.607Z,92.40
2023-03-05T02:47:55.282Z,92.30
2023-03-05T02:50:23.076Z,92.40
2023-03-05T02:52:49.856Z,92.50
2023-03-05T02:55:16.541Z,92.60
2023-03-05T02:57:43.263Z,92.90
2023-03-05T03:00:10.724Z,93.20
2023-03-05T03:02:37.545Z,93.40
2023-03-05T03:05:04.592Z,93.60
2023-03-05T03:07:31.177Z,93.60
2023-03-05T03:09:57.836Z,93.80
2023-03-05T03:12:24.505Z,94.00
2023-03-05T03:14:51.185Z,94.10
2023-03-05T03:17:18.781Z,94.20
2023-03-05T03:19:46.475Z,94.20
2023-03-05T03:22:15.698Z,94.30
2023-03-05T03:24:43.359Z,94.40
2023-03-05T03:27:10.502Z,94.40
2023-03-05T03:29:37.756Z,94.60
2023-03-05T03:32:04.795Z,94.70
2023-03-05T03:34:31.718Z,94.80
2023-03-05T03:36:58.391Z,94.80
2023-03-05T03:39:25.506Z,94.80
2023-03-05T03:41:53.559Z,95.00
2023-03-05T03:44:21.647Z,95.00
2023-03-05T03:46:49.536Z,95.40
2023-03-05T03:49:22.210Z,95.20
2023-03-05T03:51:49.963Z,95.20
2023-03-05T03:54:18.693Z,95.20
2023-03-05T03:56:45.893Z,95.20
2023-03-05T03:59:13.406Z,95.30
2023-03-05T04:01:40.810Z,95.50
2023-03-05T04:04:08.801Z,95.50
2023-03-05T04:06:35.627Z,95.60
2023-03-05T04:09:02.280Z,95.60
2023-03-05T04:11:28.903Z,95.70
2023-03-05T04:13:55.565Z,95.80
2023-03-05T04:16:22.780Z,95.90
2023-03-05T04:18:49.447Z,96.10
2023-03-05T04:21:16.064Z,96.20
2023-03-05T04:23:42.731Z,96.30
2023-03-05T04:26:09.415Z,96.20
2023-03-05T04:28:36.214Z,96.30
2023-03-05T04:31:04.292Z,96.30
2023-03-05T04:33:30.976Z,96.50
2023-03-05T04:35:57.685Z,96.60
2023-03-05T04:38:24.357Z,96.50
2023-03-05T04:40:50.973Z,96.60
2023-03-05T04:43:17.763Z,96.90
2023-03-05T04:45:44.815Z,96.80
2023-03-05T04:48:11.960Z,97.00
2023-03-05T04:50:38.670Z,96.90
2023-03-05T04:53:06.024Z,96.90
2023-03-05T04:55:32.707Z,96.80
2023-03-05T04:57:59.388Z,96.70
2023-03-05T05:00:26.136Z,97.10
2023-03-05T05:02:53.310Z,96.80
2023-03-05T05:05:25.138Z,96.70
2023-03-05T05:07:56.402Z,96.70
2023-03-05T05:10:24.057Z,97.00
2023-03-05T05:12:50.732Z,96.90
2023-03-05T05:15:17.409Z,96.90
2023-03-05T05:17:44.367Z,96.80
2023-03-05T05:20:14.213Z,96.80
2023-03-05T05:22:41.134Z,96.90
2023-03-05T05:25:08.605Z,97.00
2023-03-05T05:27:35.215Z,97.00
2023-03-05T05:30:02.129Z,96.90
2023-03-05T05:32:28.834Z,97.00
2023-03-05T05:34:56.912Z,96.70
2023-03-05T05:37:24.578Z,96.80
2023-03-05T05:39:52.137Z,96.80
2023-03-05T05:42:20.517Z,97.00
2023-03-05T05:44:47.640Z,96.80
2023-03-05T05:47:15.690Z,96.70
2023-03-05T05:49:42.472Z,96.60
2023-03-05T05:52:09.255Z,96.80
2023-03-05T05:54:35.966Z,96.60
2023-03-05T05:57:02.718Z,96.40
2023-03-05T05:59:29.713Z,96.50
2023-03-05T06:01:56.414Z,96.50
2023-03-05T06:04:23.197Z,96.50
2023-03-05T06:06:49.857Z,96.50
2023-03-05T06:09:16.782Z,96.60
2023-03-05T06:11:44.590Z,96.70
2023-03-05T06:14:12.799Z,96.50
2023-03-05T06:16:40.230Z,96.40
2023-03-05T06:19:10.734Z,96.40
2023-03-05T06:21:37.398Z,96.20
2023-03-05T06:24:04.482Z,96.40
2023-03-05T06:26:31.251Z,96.30
2023-03-05T06:28:59.050Z,96.40
2023-03-05T06:31:27.496Z,96.60
2023-03-05T06:34:02.623Z,96.80
2023-03-05T06:36:30.594Z,97.00
2023-03-05T06:38:58.172Z,96.80
2023-03-05T06:41:30.524Z,97.30
2023-03-05T06:43:59.097Z,96.90
2023-03-05T06:46:28.463Z,97.00
2023-03-05T06:48:57.154Z,96.90
2023-03-05T06:51:29.863Z,97.10
2023-03-05T06:53:59.731Z,97.30
2023-03-05T06:56:26.548Z,98.10
2023-03-05T06:58:53.407Z,98.60
2023-03-05T07:01:21.855Z,98.00
2023-03-05T07:03:53.379Z,98.20
2023-03-05T07:06:21.781Z,98.20
2023-03-05T07:08:48.779Z,98.20
2023-03-05T07:11:18.740Z,98.10
2023-03-05T07:13:47.777Z,98.40
2023-03-05T07:16:26.146Z,98.20
2023-03-05T07:18:53.335Z,97.80
2023-03-05T07:21:23.001Z,97.50
2023-03-05T07:23:50.314Z,97.40
2023-03-05T07:26:17.387Z,97.40
2023-03-05T07:28:44.538Z,97.60
2023-03-05T07:31:15.016Z,97.50
2023-03-05T07:33:41.793Z,97.40
2023-03-05T07:36:09.699Z,97.30
2023-03-05T07:38:36.707Z,97.30
2023-03-05T07:41:11.994Z,97.30
2023-03-05T07:43:39.190Z,97.40
2023-03-05T07:46:08.182Z,98.20
2023-03-05T07:48:35.629Z,98.00
2023-03-05T07:51:08.676Z,98.00
2023-03-05T07:53:35.490Z,97.70
2023-03-05T07:56:02.934Z,97.30
2023-03-05T07:58:29.740Z,97.20
2023-03-05T08:00:56.437Z,97.30
2023-03-05T08:03:23.205Z,97.20
2023-03-05T08:05:50.054Z,97.20
2023-03-05T08:08:16.749Z,97.00
2023-03-05T08:10:43.588Z,97.10
2023-03-05T08:13:10.755Z,97.30
2023-03-05T08:15:38.259Z,97.10
2023-03-05T08:18:06.138Z,97.00
2023-03-05T08:20:35.928Z,97.50
2023-03-05T08:23:03.374Z,97.40
2023-03-05T08:25:30.504Z,97.20
2023-03-05T08:27:57.203Z,97.30
2023-03-05T08:30:27.189Z,97.30
2023-03-05T08:32:54.766Z,97.40
2023-03-05T08:35:21.893Z,97.30
2023-03-05T08:37:49.047Z,97.50
2023-03-05T08:40:18.072Z,97.30
2023-03-05T08:42:45.163Z,97.00
2023-03-05T08:45:12.599Z,97.00
2023-03-05T08:47:39.625Z,96.70
2023-03-05T08:50:06.976Z,96.50
2023-03-05T08:52:33.816Z,96.20
2023-03-05T08:55:00.900Z,96.40
2023-03-05T08:57:27.706Z,96.30
2023-03-05T08:59:54.389Z,96.20
2023-03-05T09:02:21.229Z,96.40
2023-03-05T09:04:47.985Z,96.30
2023-03-05T09:07:14.760Z,96.10
2023-03-05T09:09:41.528Z,96.10
2023-03-05T09:12:12.036Z,95.90
2023-03-05T09:14:40.209Z,95.70
2023-03-05T09:17:07.117Z,95.30
2023-03-05T09:19:33.750Z,95.00
2023-03-05T09:22:00.610Z,94.80
2023-03-05T09:24:27.436Z,94.70
2023-03-05T09:26:54.197Z,94.50
2023-03-05T09:29:20.931Z,94.50
2023-03-05T09:31:51.527Z,94.40
2023-03-05T09:34:18.301Z,93.90
2023-03-05T09:36:45.097Z,93.70
2023-03-05T09:39:11.836Z,93.40
2023-03-05T09:41:47.709Z,93.70
2023-03-05T09:44:29.178Z,93.60
2023-03-05T09:47:14.824Z,93.50
2023-03-05T09:50:06.339Z,93.40
2023-03-05T09:52:41.997Z,93.10
2023-03-05T09:55:18.472Z,93.40
2023-03-05T09:57:50.355Z,93.40
2023-03-05T10:00:41.240Z,93.70
2023-03-05T10:03:15.280Z,94.40
2023-03-05T10:05:53.447Z,94.00
2023-03-05T10:08:24.625Z,93.40
2023-03-05T10:10:53.985Z,92.90
2023-03-05T10:13:26.044Z,92.80
2023-03-05T10:16:30.071Z,91.70
2023-03-05T10:19:05.008Z,91.20
2023-03-05T10:21:45.344Z,90.90
2023-03-05T10:24:20.288Z,90.90
2023-03-05T10:27:06.271Z,90.90
2023-03-05T10:29:51.913Z,90.90
2023-03-05T10:32:42.657Z,90.60
2023-03-05T10:35:40.868Z,90.60
2023-03-05T10:38:29.081Z,90.60
2023-03-05T10:40:56.364Z,90.40
2023-03-05T10:43:51.802Z,90.50
2023-03-05T10:46:22.092Z,90.30
2023-03-05T10:49:00.567Z,89.80
2023-03-05T10:51:56.915Z,90.10
2023-03-05T10:54:34.453Z,90.10
2023-03-05T10:57:14.058Z,90.10
2023-03-05T11:00:06.950Z,90.30
2023-03-05T11:02:34.284Z,90.10
2023-03-05T11:05:01.807Z,90.10
2023-03-05T11:07:33.427Z,89.70
2023-03-05T11:10:00.139Z,90.00
2023-03-05T11:12:28.321Z,89.40
2023-03-05T11:15:10.005Z,87.40
2023-03-05T11:17:38.274Z,87.10
2023-03-05T11:20:29.340Z,86.80
2023-03-05T11:23:06.562Z,87.00
2023-03-05T11:25:34.769Z,87.30
2023-03-05T11:28:02.954Z,86.30
2023-03-05T11:30:35.715Z,87.10
2023-03-05T11:33:23.340Z,87.00
2023-03-05T11:35:51.678Z,86.50
2023-03-05T11:38:25.092Z,86.60
2023-03-05T11:40:53.764Z,86.40
2023-03-05T11:43:23.514Z,85.90
2023-03-05T11:45:54.561Z,85.30
2023-03-05T11:48:37.437Z,86.20
2023-03-05T11:51:15.770Z,86.20
2023-03-05T11:53:44.257Z,86.10
2023-03-05T11:56:27.337Z,86.40
2023-03-05T11:59:02.807Z,85.90
2023-03-05T12:01:38.431Z,85.90
2023-03-05T12:04:05.269Z,86.20
2023-03-05T12:06:38.698Z,86.30
2023-03-05T12:09:47.642Z,86.30
2023-03-05T12:12:46.942Z,86.40
2023-03-05T12:15:36.898Z,87.70
2023-03-05T12:18:15.545Z,89.60
2023-03-05T12:21:04.286Z,90.50
2023-03-05T12:23:45.548Z,91.10
2023-03-05T12:26:12.283Z,91.30
2023-03-05T12:28:59.376Z,91.40
2023-03-05T12:31:35.702Z,91.30
2023-03-05T12:34:45.595Z,91.30
2023-03-05T12:37:13.400Z,91.10
2023-03-05T12:39:49.540Z,90.80
2023-03-05T12:42:28.199Z,90.80
2023-03-05T12:45:10.004Z,90.60
2023-03-05T12:47:40.245Z,90.40
2023-03-05T12:50:28.969Z,90.50
2023-03-05T12:53:10.298Z,90.20
2023-03-05T12:56:31.408Z,90.30
2023-03-05T12:59:00.994Z,90.40
2023-03-05T13:01:46.031Z,90.30
2023-03-05T13:04:19.842Z,90.00
2023-03-05T13:06:46.684Z,90.00
2023-03-05T13:09:25.058Z,89.50
2023-03-05T13:11:54.961Z,89.70
2023-03-05T13:14:42.052Z,89.10
2023-03-05T13:17:38.305Z,89.20
2023-03-05T13:20:29.652Z,88.90
2023-03-05T13:23:13.132Z,89.20
2023-03-05T13:25:39.776Z,89.10
2023-03-05T13:28:18.768Z,88.40
2023-03-05T13:31:17.651Z,88.40
2023-03-05T13:33:54.346Z,87.70
2023-03-05T13:36:24.147Z,87.50
2023-03-05T13:38:51.450Z,87.20
2023-03-05T13:41:20.154Z,86.50
2023-03-05T13:43:55.544Z,86.40
2023-03-05T13:46:25.143Z,85.70
2023-03-05T13:48:51.919Z,85.20
2023-03-05T13:51:19.068Z,86.00
2023-03-05T13:53:46.195Z,85.70
2023-03-05T13:56:19.652Z,85.70
2023-03-05T13:58:55.347Z,85.20
2023-03-05T14:01:41.566Z,85.60
2023-03-05T14:04:25.147Z,84.50
2023-03-05T14:07:07.630Z,85.10
2023-03-05T14:09:40.270Z,85.20
2023-03-05T14:12:30.247Z,85.40
2023-03-05T14:14:58.782Z,86.30
2023-03-05T14:17:44.470Z,86.30
2023-03-05T14:20:13.848Z,85.60
2023-03-05T14:22:45.833Z,85.40
2023-03-05T14:25:36.322Z,85.60
2023-03-05T14:28:18.124Z,85.50
2023-03-05T14:30:52.771Z,85.50
2023-03-05T14:33:32.065Z,85.60
2023-03-05T14:36:00.620Z,86.20
2023-03-05T14:38:31.604Z,85.70
2023-03-05T14:40:58.420Z,85.10
2023-03-05T14:43:25.089Z,85.10
2023-03-05T14:45:51.782Z,85.30
2023-03-05T14:48:21.460Z,85.10
2023-03-05T14:50:56.427Z,85.60
2023-03-05T14:53:38.955Z,85.80
2023-03-05T14:56:32.082Z,85.30
2023-03-05T14:58:58.818Z,85.10
2023-03-05T15:01:26.181Z,85.20
2023-03-05T15:03:53.022Z,85.10
2023-03-05T15:06:33.111Z,85.30
2023-03-05T15:09:01.698Z,86.00
2023-03-05T15:11:28.568Z,86.60
2023-03-05T15:13:55.392Z,87.00
2023-03-05T15:16:22.794Z,87.00
2023-03-05T15:18:49.828Z,87.10
2023-03-05T15:21:16.810Z,87.00
2023-03-05T15:23:44.628Z,87.70
2023-03-05T15:26:14.980Z,87.70
2023-03-05T15:28:42.731Z,87.90
2023-03-05T15:31:09.908Z,87.70
2023-03-05T15:33:36.844Z,88.70
2023-03-05T15:36:04.081Z,89.40
2023-03-05T15:38:30.806Z,89.00
2023-03-05T15:40:59.329Z,88.80
2023-03-05T15:43:27.444Z,88.90
2023-03-05T15:45:54.330Z,88.90
2023-03-05T15:48:21.170Z,89.40
2023-03-05T15:50:48.017Z,89.80
2023-03-05T15:53:18.203Z,89.80
2023-03-05T15:55:46.102Z,89.60
2023-03-05T15:58:17.648Z,90.10
2023-03-05T16:00:47.324Z,90.10
2023-03-05T16:03:14.164Z,90.00
2023-03-05T16:05:40.959Z,89.30
2023-03-05T16:08:08.303Z,89.70
2023-03-05T16:10:36.609Z,90.00
2023-03-05T16:13:07.951Z,89.90
2023-03-05T16:15:35.405Z,89.80
2023-03-05T16:18:07.926Z,90.00
2023-03-05T16:20:36.285Z,89.40
2023-03-05T16:23:04.353Z,89.60
2023-03-05T16:25:31.388Z,89.40
2023-03-05T16:27:58.155Z,89.40
2023-03-05T16:30:25.140Z,89.70
2023-03-05T16:32:53.700Z,89.30
2023-03-05T16:35:20.829Z,88.80
2023-03-05T16:37:47.818Z,88.00
2023-03-05T16:40:14.747Z,88.40
2023-03-05T16:42:42.108Z,88.20
2023-03-05T16:45:10.351Z,88.20
2023-03-05T16:47:37.226Z,87.80
2023-03-05T16:50:04.568Z,87.30
2023-03-05T16:52:31.387Z,87.50
2023-03-05T16:54:58.156Z,86.60
2023-03-05T16:57:25.742Z,86.50
2023-03-05T16:59:54.082Z,86.00
2023-03-05T17:02:21.008Z,85.70
2023-03-05T17:04:48.923Z,85.70
2023-03-05T17:07:16.113Z,85.70
2023-03-05T17:09:44.384Z,85.10
2023-03-05T17:12:13.572Z,84.80
2023-03-05T17:14:40.401Z,85.20
2023-03-05T17:17:07.839Z,85.50
2023-03-05T17:19:34.686Z,85.20
2023-03-05T17:22:02.207Z,84.90
2023-03-05T17:24:30.359Z,84.70
2023-03-05T17:27:00.235Z,84.30
2023-03-05T17:29:27.262Z,84.40
2023-03-05T17:31:54.498Z,84.30
2023-03-05T17:34:33.380Z,84.10
2023-03-05T17:37:05.886Z,84.20
2023-03-05T17:39:34.138Z,83.80
2023-03-05T17:42:01.380Z,83.60
2023-03-05T17:44:28.153Z,83.40
2023-03-05T17:46:55.213Z,83.10
2023-03-05T17:49:22.240Z,83.30
2023-03-05T17:51:49.058Z,83.40
2023-03-05T17:54:16.543Z,83.40
2023-03-05T17:56:44.988Z,83.40
2023-03-05T17:59:12.029Z,83.60
2023-03-05T18:01:40.052Z,83.80
2023-03-05T18:04:07.139Z,83.70
2023-03-05T18:06:33.915Z,83.60
2023-03-05T18:09:00.650Z,83.40
2023-03-05T18:11:28.970Z,83.20
2023-03-05T18:13:56.060Z,86.00
2023-03-05T18:16:25.114Z,83.90
2023-03-05T18:18:53.022Z,83.50
2023-03-05T18:21:21.931Z,83.10
2023-03-05T18:23:49.804Z,83.40
2023-03-05T18:26:16.966Z,83.60
2023-03-05T18:28:43.848Z,83.60
2023-03-05T18:31:10.664Z,83.20
2023-03-05T18:33:38.758Z,83.30
2023-03-05T18:36:05.815Z,84.00
2023-03-05T18:38:32.578Z,83.70
2023-03-05T18:41:03.288Z,83.70
2023-03-05T18:43:30.136Z,84.10
2023-03-05T18:45:57.086Z,84.00
2023-03-05T18:48:23.932Z,83.90
2023-03-05T18:50:53.288Z,83.90
2023-03-05T18:53:21.664Z,84.10
2023-03-05T18:55:51.336Z,84.20
2023-03-05T18:58:18.358Z,84.00
2023-03-05T19:00:47.090Z,83.40
2023-03-05T19:03:14.937Z,83.10
2023-03-05T19:05:41.953Z,83.10
2023-03-05T19:08:11.824Z,83.30
2023-03-05T19:10:39.041Z,83.70
2023-03-05T19:13:43.865Z,84.20
2023-03-05T19:16:11.712Z,84.00
2023-03-05T19:18:44.091Z,83.80
2023-03-05T19:21:10.933Z,84.00
2023-03-05T19:23:37.656Z,83.90
2023-03-05T19:26:04.665Z,84.30
2023-03-05T19:28:31.795Z,84.40
2023-03-05T19:30:58.689Z,84.10
2023-03-05T19:33:25.549Z,84.20
2023-03-05T19:35:52.708Z,83.70
2023-03-05T19:38:19.769Z,83.70
2023-03-05T19:40:47.748Z,83.80
2023-03-05T19:43:14.532Z,83.90
2023-03-05T19:45:41.329Z,84.20
2023-03-05T19:48:08.492Z,84.90
2023-03-05T19:50:35.521Z,84.90
2023-03-05T19:53:02.405Z,84.70
2023-03-05T19:55:29.351Z,84.50
2023-03-05T19:57:56.308Z,85.30
2023-03-05T20:00:26.297Z,85.80
2023-03-05T20:02:53.213Z,86.10
2023-03-05T20:05:23.074Z,86.70
2023-03-05T20:07:49.912Z,86.80
2023-03-05T20:10:17.009Z,86.40
2023-03-05T20:12:47.789Z,86.50
2023-03-05T20:15:18.378Z,86.50
2023-03-05T20:17:45.831Z,86.60
2023-03-05T20:20:18.282Z,86.60
2023-03-05T20:22:46.504Z,86.70
2023-03-05T20:25:17.214Z,86.70
2023-03-05T20:27:44.608Z,87.20
2023-03-05T20:30:14.613Z,87.40
2023-03-05T20:32:42.030Z,87.30
2023-03-05T20:35:14.856Z,86.70
2023-03-05T20:37:51.119Z,86.80
2023-03-05T20:40:21.754Z,87.30
2023-03-05T20:42:48.724Z,88.10
2023-03-05T20:45:16.913Z,88.00
2023-03-05T20:47:46.792Z,88.00
2023-03-05T20:50:14.920Z,88.20
2023-03-05T20:52:41.803Z,89.60
2023-03-05T20:55:09.912Z,90.20
2023-03-05T20:57:38.826Z,90.20
2023-03-05T21:00:07.800Z,90.20
2023-03-05T21:02:34.577Z,90.00
2023-03-05T21:05:01.977Z,89.40
2023-03-05T21:07:29.783Z,88.40
2023-03-05T21:09:56.752Z,87.70
2023-03-05T21:12:23.629Z,87.20
2023-03-05T21:14:50.334Z,87.00
2023-03-05T21:17:17.965Z,87.10
2023-03-05T21:19:47.407Z,87.10
2023-03-05T21:22:14.200Z,87.00
2023-03-05T21:25:00.859Z,86.80
2023-03-05T21:27:28.627Z,87.00
2023-03-05T21:29:55.543Z,86.80
2023-03-05T21:32:22.380Z,86.80
2023-03-05T21:34:49.223Z,86.90
2023-03-05T21:37:17.090Z,87.10
2023-03-05T21:39:44.121Z,86.80
2023-03-05T21:42:11.237Z,86.70
2023-03-05T21:44:38.191Z,86.60
2023-03-05T21:47:05.068Z,86.80
2023-03-05T21:49:31.769Z,87.00
2023-03-05T21:52:09.215Z,87.00
2023-03-05T21:54:37.280Z,87.00
2023-03-05T21:57:04.537Z,86.90
2023-03-05T21:59:31.768Z,87.00
2023-03-05T22:01:58.943Z,87.10
2023-03-05T22:04:25.900Z,87.00
2023-03-05T22:06:52.937Z,87.30
2023-03-05T22:09:19.846Z,87.10
2023-03-05T22:11:46.602Z,87.20
2023-03-05T22:14:13.838Z,87.30
2023-03-05T22:16:41.463Z,87.40
2023-03-05T22:19:08.188Z,87.70
2023-03-05T22:21:35.007Z,87.90
2023-03-05T22:24:01.879Z,88.40
2023-03-05T22:26:38.043Z,88.30
2023-03-05T22:29:09.698Z,88.30
2023-03-05T22:31:36.378Z,88.10
2023-03-05T22:34:03.427Z,88.00
2023-03-05T22:36:30.255Z,88.30
2023-03-05T22:38:56.952Z,87.60
2023-03-05T22:41:23.626Z,87.70
2023-03-05T22:43:51.600Z,88.20
2023-03-05T22:46:21.768Z,89.90
2023-03-05T22:48:48.858Z,90.60
2023-03-05T22:51:16.388Z,90.90
2023-03-05T22:53:43.731Z,90.70
2023-03-05T22:56:13.642Z,90.40
2023-03-05T22:58:40.874Z,90.30
2023-03-05T23:01:16.195Z,90.20
2023-03-05T23:03:43.385Z,90.30
2023-03-05T23:06:10.703Z,90.10
2023-03-05T23:08:37.486Z,90.10
2023-03-05T23:11:09.674Z,90.20
2023-03-05T23:13:41.291Z,90.20
2023-03-05T23:16:12.524Z,90.10
2023-03-05T23:18:39.209Z,89.80
2023-03-05T23:21:06.105Z,89.80
2023-03-05T23:23:32.861Z,89.70
2023-03-05T23:25:59.583Z,89.70
2023-03-05T23:28:26.301Z,90.00
2023-03-05T23:30:52.967Z,89.80
2023-03-05T23:33:22.750Z,89.90
2023-03-05T23:35:58.214Z,90.00
2023-03-05T23:38:27.278Z,89.90
2023-03-05T23:40:56.181Z,90.10
2023-03-05T23:43:25.075Z,90.80
2023-03-05T23:45:56.136Z,91.00
2023-03-05T23:48:25.045Z,91.20
2023-03-05T23:50:52.044Z,91.70
2023-03-05T23:53:20.017Z,91.30
2023-03-05T23:55:47.403Z,91.30
2023-03-05T23:58:16.670Z,91.00
